Aeroporto :
LOGIN :

Iscrizione | Disclaimer

   EN    FR    IT 

 










Sommario :    VFR   VFR Marginale   IFR   IFR Intensivo   IFR Molto Intensivo
Visibilità : 
Base nubi : 
>= 8 km
>= 3000ft
5 / 8 km
1000 / 3000 ft
1500m / 5 km
500 / 1000 ft
800 / 1500m
200 / 500 ft
< 800m
< 200 ft
Simboli :   Temporali  Nebbia  Neve Forte  Precipitazioni Forti  Vento > 20 kt
SIGMETs :   Varie  Temporali  Ghiacco  Turbolenza  Onda orograficha  Ceneri Vulcaniche






- Altitudine del aeroporto : 675 ft
- Codice IATA : RZE


EPRZ - Rzeszow-Jasionka

ULTIMO METAR :
  • 091430Z 27016KT 240V300 CAVOK 22/M06 Q1017

METARs OBSOLETI :
  • 091400Z 26015KT CAVOK 22/M03 Q1017
  • 091330Z 25013KT 220V280 CAVOK 22/M04 Q1018
  • 091300Z 26012KT 200V290 CAVOK 21/M04 Q1018
  • 091230Z 25011KT 210V280 CAVOK 22/M03 Q1019
  • 091200Z 25013KT 220V280 CAVOK 21/M04 Q1019

TAF TAF EPRZ
Valido dal 09 a 12 ore il 10 a 12 ore UTC


091130Z 0912/1012 27012KT CAVOK
TEMPO 0912/0917 27015G25KT
BECMG 0917/0919 34009KT
TEMPO 0917/0924 34015G25KT SCT040TCU



MetMap, La meteo Aeronautica in un colpo d'occhio ! - Copyright ORBIFLY Dicembre 2007 - Disclaimer

ORBIFLY MET'MAP TEAM :

Programmazione e sviluppo : Alexandra Zaïnal
Concezione : Baudouin d'Aumeries
Aiuto per la programmazione : Marc-Olivier Méhu
Supporto tecnico e logistico : Manuel Goepfert
Aiuto per la traduzione : Arnaldo La Scala

Contatto : metmap@orbifly.com




FONTI E CREDITI :

   NOAA